Archival Weather

Southern Wisconsin Rgnl

Janesville, Wisconsin (KJVL)

Report from: Wednesday, December 6, 2023 4:35 AM CST
Current time: Sunday, February 25, 2024 3:49 PM CST

Current weather – Weather history – Daily summaries
Weather forecast

Temperature1.0°C (33.8°F)
Wind chill-1.9°C (28.6°F)
Dew point-4.0°C (24.8°F)
Winds 5 kts (2.6 m/s, 5.8 mph) West-Northwest (290°)
Visibility10 mi. (16.1 km)
Clouds Ceiling: Overcast 2,500 ft. (762 m)
Altimeter30.27 in.Hg (1025 mB)
Relative humidity69 %
Density altitude-2,037 ft. (-621 m)
Remarks Fully automated report
Automated weather observing station with precipitation discriminator
Flight conditions Marginal Visual Meteorological Conditions
Raw dataKJVL 061035Z AUTO 29005KT 10SM OVC025 01/M04 A3027 RMK AO2
An error has occurred. This application may no longer respond until reloaded. Reload 🗙